sensor_id;sensor_type;location;lat;lon;timestamp;temperature;humidity
31687;DHT22;18285;51.330;4.946;2023-04-12T00:18:48;23.40;36.20
31687;DHT22;18285;51.330;4.946;2023-04-12T00:43:00;23.30;37.00
31687;DHT22;18285;51.330;4.946;2023-04-12T01:31:58;23.40;36.50
31687;DHT22;18285;51.330;4.946;2023-04-12T01:56:10;23.40;36.50
31687;DHT22;18285;51.330;4.946;2023-04-12T02:20:22;23.30;36.60
31687;DHT22;18285;51.330;4.946;2023-04-12T02:44:33;23.20;36.60
31687;DHT22;18285;51.330;4.946;2023-04-12T03:08:44;23.30;36.70
31687;DHT22;18285;51.330;4.946;2023-04-12T03:32:55;23.40;36.70
31687;DHT22;18285;51.330;4.946;2023-04-12T03:57:06;23.40;36.70
31687;DHT22;18285;51.330;4.946;2023-04-12T04:21:16;23.40;36.90
31687;DHT22;18285;51.330;4.946;2023-04-12T04:45:29;23.40;37.00
31687;DHT22;18285;51.330;4.946;2023-04-12T05:09:41;23.40;37.10
31687;DHT22;18285;51.330;4.946;2023-04-12T05:33:52;23.30;37.20
31687;DHT22;18285;51.330;4.946;2023-04-12T05:58:04;23.40;37.30
31687;DHT22;18285;51.330;4.946;2023-04-12T06:22:15;23.30;37.30
31687;DHT22;18285;51.330;4.946;2023-04-12T06:46:26;23.40;37.80
31687;DHT22;18285;51.330;4.946;2023-04-12T07:10:37;23.50;37.90
31687;DHT22;18285;51.330;4.946;2023-04-12T07:34:48;23.40;38.90
31687;DHT22;18285;51.330;4.946;2023-04-12T07:58:59;23.40;39.10
31687;DHT22;18285;51.330;4.946;2023-04-12T08:23:10;23.40;39.50
31687;DHT22;18285;51.330;4.946;2023-04-12T08:47:21;23.40;39.30
31687;DHT22;18285;51.330;4.946;2023-04-12T09:11:32;23.40;40.60
31687;DHT22;18285;51.330;4.946;2023-04-12T09:35:43;23.20;39.30
31687;DHT22;18285;51.330;4.946;2023-04-12T09:59:56;23.30;39.70
31687;DHT22;18285;51.330;4.946;2023-04-12T10:24:10;23.50;38.70
31687;DHT22;18285;51.330;4.946;2023-04-12T10:48:38;23.40;39.30
31687;DHT22;18285;51.330;4.946;2023-04-12T11:12:50;23.40;40.10
31687;DHT22;18285;51.330;4.946;2023-04-12T11:37:05;23.40;39.30
31687;DHT22;18285;51.330;4.946;2023-04-12T12:01:19;23.40;38.40
31687;DHT22;18285;51.330;4.946;2023-04-12T12:25:30;23.40;39.10
31687;DHT22;18285;51.330;4.946;2023-04-12T12:49:41;23.20;40.20
31687;DHT22;18285;51.330;4.946;2023-04-12T13:13:51;23.20;38.40
31687;DHT22;18285;51.330;4.946;2023-04-12T13:38:02;23.30;38.90
31687;DHT22;18285;51.330;4.946;2023-04-12T14:02:17;23.40;39.30
31687;DHT22;18285;51.330;4.946;2023-04-12T14:26:27;23.60;38.40
31687;DHT22;18285;51.330;4.946;2023-04-12T14:50:38;23.30;38.20
31687;DHT22;18285;51.330;4.946;2023-04-12T15:14:49;23.40;38.80
31687;DHT22;18285;51.330;4.946;2023-04-12T15:39:00;23.20;37.20
31687;DHT22;18285;51.330;4.946;2023-04-12T16:03:11;23.40;39.70
31687;DHT22;18285;51.330;4.946;2023-04-12T16:27:27;23.40;38.90
31687;DHT22;18285;51.330;4.946;2023-04-12T16:51:38;23.40;38.90
31687;DHT22;18285;51.330;4.946;2023-04-12T17:15:50;23.30;37.20
31687;DHT22;18285;51.330;4.946;2023-04-12T17:40:03;23.40;35.30
31687;DHT22;18285;51.330;4.946;2023-04-12T18:04:24;23.60;35.20
31687;DHT22;18285;51.330;4.946;2023-04-12T18:28:36;23.60;33.90
31687;DHT22;18285;51.330;4.946;2023-04-12T18:52:49;23.50;32.90
31687;DHT22;18285;51.330;4.946;2023-04-12T19:17:00;23.50;31.80
31687;DHT22;18285;51.330;4.946;2023-04-12T19:41:12;23.50;31.80
31687;DHT22;18285;51.330;4.946;2023-04-12T20:05:23;23.50;32.10
31687;DHT22;18285;51.330;4.946;2023-04-12T20:29:35;23.50;32.80
31687;DHT22;18285;51.330;4.946;2023-04-12T20:53:46;23.40;35.40
31687;DHT22;18285;51.330;4.946;2023-04-12T21:17:56;23.50;33.10
31687;DHT22;18285;51.330;4.946;2023-04-12T21:42:07;23.40;34.10
31687;DHT22;18285;51.330;4.946;2023-04-12T22:06:17;23.40;33.50
31687;DHT22;18285;51.330;4.946;2023-04-12T22:30:29;23.40;34.30
31687;DHT22;18285;51.330;4.946;2023-04-12T22:54:40;23.30;34.40
31687;DHT22;18285;51.330;4.946;2023-04-12T23:18:50;23.30;34.60
31687;DHT22;18285;51.330;4.946;2023-04-12T23:43:01;23.10;34.90
